createdAt,value
2023-02-06T00:01:27.936Z,-5.04
2023-02-06T00:03:54.956Z,-5.02
2023-02-06T00:06:21.880Z,-5.02
2023-02-06T00:08:48.792Z,-4.97
2023-02-06T00:11:21.092Z,-4.95
2023-02-06T00:13:48.834Z,-4.96
2023-02-06T00:16:21.058Z,-4.91
2023-02-06T00:18:49.068Z,-4.97
2023-02-06T00:21:18.344Z,-4.92
2023-02-06T00:23:45.252Z,-4.88
2023-02-06T00:26:12.261Z,-4.88
2023-02-06T00:28:39.200Z,-4.89
2023-02-06T00:31:08.294Z,-4.92
2023-02-06T00:33:36.114Z,-5.01
2023-02-06T00:36:03.943Z,-5.07
2023-02-06T00:38:31.318Z,-5.14
2023-02-06T00:40:58.310Z,-5.16
2023-02-06T00:43:25.697Z,-5.11
2023-02-06T00:45:53.685Z,-5.15
2023-02-06T00:48:20.660Z,-5.13
2023-02-06T00:50:52.629Z,-5.10
2023-02-06T00:53:20.074Z,-5.12
2023-02-06T00:55:47.033Z,-5.16
2023-02-06T00:58:14.072Z,-5.13
2023-02-06T01:00:41.026Z,-5.10
2023-02-06T01:03:07.966Z,-5.07
2023-02-06T01:05:35.265Z,-5.02
2023-02-06T01:08:04.365Z,-5.01
2023-02-06T01:10:31.918Z,-5.01
2023-02-06T01:12:58.977Z,-5.02
2023-02-06T01:15:26.086Z,-4.99
2023-02-06T01:17:53.025Z,-4.96
2023-02-06T01:20:20.094Z,-5.56
2023-02-06T01:22:47.072Z,-5.14
2023-02-06T01:25:14.006Z,-5.23
2023-02-06T01:27:40.983Z,-5.26
2023-02-06T01:30:08.651Z,-5.24
2023-02-06T01:32:39.834Z,-5.25
2023-02-06T01:35:07.872Z,-5.27
2023-02-06T01:37:36.366Z,-5.27
2023-02-06T01:40:05.257Z,-5.25
2023-02-06T01:42:40.657Z,-5.31
2023-02-06T01:45:26.271Z,-5.31
2023-02-06T01:47:59.978Z,-5.31
2023-02-06T01:50:28.226Z,-5.28
2023-02-06T01:52:55.418Z,-5.27
2023-02-06T01:55:22.369Z,-5.35
2023-02-06T01:57:49.441Z,-5.44
2023-02-06T02:00:16.651Z,-5.45
2023-02-06T02:02:48.691Z,-5.49
2023-02-06T02:05:18.564Z,-5.55
2023-02-06T02:08:19.549Z,-5.68
2023-02-06T02:11:06.019Z,-5.67
2023-02-06T02:14:11.374Z,-5.92
2023-02-06T02:17:08.470Z,-6.08
2023-02-06T02:20:26.014Z,-6.13
2023-02-06T02:23:24.468Z,-6.20
2023-02-06T02:26:12.537Z,-6.34
2023-02-06T02:28:51.179Z,-6.39
2023-02-06T02:31:33.238Z,-6.43
2023-02-06T02:34:18.966Z,-6.46
2023-02-06T02:37:00.038Z,-6.50
2023-02-06T02:39:59.931Z,-6.54
2023-02-06T02:42:43.623Z,-6.45
2023-02-06T02:45:10.515Z,-6.40
2023-02-06T02:47:49.883Z,-6.37
2023-02-06T02:50:19.274Z,-6.34
2023-02-06T02:52:46.722Z,-6.28
2023-02-06T02:55:22.812Z,-6.27
2023-02-06T02:57:54.489Z,-6.39
2023-02-06T03:00:23.794Z,-6.41
2023-02-06T03:02:52.899Z,-6.42
2023-02-06T03:05:24.652Z,-6.39
2023-02-06T03:08:27.807Z,-6.38
2023-02-06T03:11:08.977Z,-6.36
2023-02-06T03:13:42.866Z,-6.44
2023-02-06T03:16:15.700Z,-6.39
2023-02-06T03:18:59.905Z,-6.40
2023-02-06T03:21:28.745Z,-6.43
2023-02-06T03:24:02.810Z,-6.52
2023-02-06T03:26:32.208Z,-6.61
2023-02-06T03:29:06.837Z,-6.77
2023-02-06T03:31:39.297Z,-6.88
2023-02-06T03:34:34.694Z,-6.93
2023-02-06T03:37:02.092Z,-6.92
2023-02-06T03:39:29.412Z,-6.91
2023-02-06T03:42:00.023Z,-6.89
2023-02-06T03:44:33.753Z,-6.99
2023-02-06T03:47:03.595Z,-7.07
2023-02-06T03:49:33.238Z,-7.40
2023-02-06T03:52:08.539Z,-7.53
2023-02-06T03:54:40.336Z,-7.52
2023-02-06T03:57:11.934Z,-7.48
2023-02-06T03:59:38.844Z,-7.56
2023-02-06T04:02:06.938Z,-7.76
2023-02-06T04:04:40.821Z,-7.87
2023-02-06T04:07:16.068Z,-7.87
2023-02-06T04:09:43.007Z,-7.86
2023-02-06T04:12:10.613Z,-7.86
2023-02-06T04:14:38.052Z,-8.40
2023-02-06T04:17:05.925Z,-7.82
2023-02-06T04:19:33.707Z,-7.83
2023-02-06T04:22:01.632Z,-7.88
2023-02-06T04:24:30.873Z,-7.92
2023-02-06T04:26:58.147Z,-7.91
2023-02-06T04:29:25.268Z,-8.07
2023-02-06T04:31:52.371Z,-7.99
2023-02-06T04:34:19.269Z,-7.95
2023-02-06T04:36:46.176Z,-7.94
2023-02-06T04:39:13.125Z,-8.06
2023-02-06T04:41:39.988Z,-8.13
2023-02-06T04:44:06.910Z,-8.19
2023-02-06T04:46:33.818Z,-8.19
2023-02-06T04:49:03.675Z,-8.40
2023-02-06T04:51:30.576Z,-8.38
2023-02-06T04:53:57.470Z,-8.38
2023-02-06T04:56:26.194Z,-8.38
2023-02-06T04:58:53.274Z,-8.49
2023-02-06T05:01:20.658Z,-8.59
2023-02-06T05:03:48.178Z,-8.52
2023-02-06T05:06:15.734Z,-8.50
2023-02-06T05:08:42.819Z,-8.59
2023-02-06T05:11:10.042Z,-8.90
2023-02-06T05:13:37.098Z,-8.52
2023-02-06T05:16:12.777Z,-8.51
2023-02-06T05:18:40.433Z,-8.63
2023-02-06T05:21:07.900Z,-8.74
2023-02-06T05:23:34.850Z,-8.79
2023-02-06T05:26:01.885Z,-8.79
2023-02-06T05:28:33.697Z,-8.72
2023-02-06T05:31:02.313Z,-8.64
2023-02-06T05:33:30.200Z,-8.59
2023-02-06T05:36:08.147Z,-8.53
2023-02-06T05:38:35.148Z,-8.48
2023-02-06T05:41:02.170Z,-8.47
2023-02-06T05:43:29.338Z,-8.42
2023-02-06T05:45:56.237Z,-8.38
2023-02-06T05:48:23.182Z,-8.38
2023-02-06T05:50:50.352Z,-8.50
2023-02-06T05:53:18.462Z,-8.42
2023-02-06T05:55:45.500Z,-8.35
2023-02-06T05:58:12.779Z,-8.45
2023-02-06T06:00:39.672Z,-8.30
2023-02-06T06:03:06.571Z,-8.27
2023-02-06T06:05:33.724Z,-8.24
2023-02-06T06:08:00.798Z,-8.21
2023-02-06T06:10:27.781Z,-8.11
2023-02-06T06:12:54.942Z,-8.07
2023-02-06T06:15:21.812Z,-8.02
2023-02-06T06:17:48.722Z,-7.95
2023-02-06T06:20:15.688Z,-7.90
2023-02-06T06:22:42.596Z,-7.80
2023-02-06T06:25:09.590Z,-7.71
2023-02-06T06:27:36.490Z,-7.64
2023-02-06T06:30:04.217Z,-7.56
2023-02-06T06:32:31.140Z,-7.50
2023-02-06T06:34:58.108Z,-7.46
2023-02-06T06:37:25.021Z,-7.38
2023-02-06T06:39:52.022Z,-7.27
2023-02-06T06:42:19.003Z,-7.16
2023-02-06T06:44:45.885Z,-7.07
2023-02-06T06:47:12.839Z,-7.03
2023-02-06T06:49:39.779Z,-6.93
2023-02-06T06:52:13.386Z,-6.80
2023-02-06T06:54:46.678Z,-6.73
2023-02-06T06:57:13.821Z,-6.64
2023-02-06T06:59:40.863Z,-6.52
2023-02-06T07:02:08.158Z,-6.43
2023-02-06T07:04:35.068Z,-6.29
2023-02-06T07:07:02.297Z,-6.13
2023-02-06T07:09:29.351Z,-5.94
2023-02-06T07:11:56.324Z,-5.80
2023-02-06T07:14:23.417Z,-5.63
2023-02-06T07:16:50.431Z,-5.53
2023-02-06T07:19:17.556Z,-5.42
2023-02-06T07:21:44.542Z,-5.36
2023-02-06T07:24:11.413Z,-5.24
2023-02-06T07:26:38.357Z,-5.14
2023-02-06T07:29:05.274Z,-5.03
2023-02-06T07:31:32.501Z,-4.82
2023-02-06T07:34:00.962Z,-4.79
2023-02-06T07:36:27.847Z,-4.82
2023-02-06T07:38:54.760Z,-4.76
2023-02-06T07:41:21.661Z,-4.80
2023-02-06T07:43:48.573Z,-4.81
2023-02-06T07:46:16.006Z,-4.72
2023-02-06T07:48:43.034Z,-4.62
2023-02-06T07:51:10.425Z,-4.66
2023-02-06T07:53:38.016Z,-4.47
2023-02-06T07:56:13.697Z,-4.39
2023-02-06T07:58:40.655Z,-4.25
2023-02-06T08:01:08.189Z,-4.29
2023-02-06T08:03:35.690Z,-3.98
2023-02-06T08:06:17.846Z,-3.85
2023-02-06T08:08:45.452Z,-3.81
2023-02-06T08:11:18.857Z,-3.85
2023-02-06T08:13:47.677Z,-3.84
2023-02-06T08:16:17.623Z,-4.43
2023-02-06T08:18:44.968Z,-3.96
2023-02-06T08:21:18.006Z,-3.93
2023-02-06T08:23:45.207Z,-3.90
2023-02-06T08:26:19.153Z,-3.80
2023-02-06T08:28:47.987Z,-3.75
2023-02-06T08:31:23.967Z,-3.62
2023-02-06T08:33:51.333Z,-3.66
2023-02-06T08:36:20.431Z,-3.66
2023-02-06T08:38:48.024Z,-3.82
2023-02-06T08:41:24.891Z,-4.09
2023-02-06T08:43:54.921Z,-3.97
2023-02-06T08:46:23.647Z,-4.18
2023-02-06T08:48:59.620Z,-4.20
2023-02-06T08:51:30.680Z,-4.08
2023-02-06T08:54:02.852Z,-3.75
2023-02-06T08:56:30.961Z,-3.74
2023-02-06T08:59:01.906Z,-3.61
2023-02-06T09:01:31.756Z,-3.42
2023-02-06T09:04:00.688Z,-3.33
2023-02-06T09:06:29.020Z,-3.32
2023-02-06T09:08:57.951Z,-3.20
2023-02-06T09:11:26.703Z,-3.09
2023-02-06T09:13:57.394Z,-2.90
2023-02-06T09:16:25.927Z,-3.18
2023-02-06T09:18:54.284Z,-3.04
2023-02-06T09:21:24.445Z,-3.08
2023-02-06T09:23:54.719Z,-2.95
2023-02-06T09:26:24.723Z,-3.13
2023-02-06T09:29:00.551Z,-3.15
2023-02-06T09:31:32.449Z,-3.02
2023-02-06T09:34:02.677Z,-3.00
2023-02-06T09:36:30.522Z,-3.01
2023-02-06T09:38:58.432Z,-2.89
2023-02-06T09:41:45.703Z,-2.94
2023-02-06T09:44:18.410Z,-2.74
2023-02-06T09:46:52.318Z,-2.84
2023-02-06T09:49:30.784Z,-2.88
2023-02-06T09:52:00.609Z,-2.54
2023-02-06T09:54:42.298Z,-2.57
2023-02-06T09:57:35.698Z,-2.70
2023-02-06T10:00:42.275Z,-2.59
2023-02-06T10:03:28.103Z,-2.42
2023-02-06T10:06:24.610Z,-2.48
2023-02-06T10:09:00.752Z,-2.09
2023-02-06T10:12:01.945Z,-1.82
2023-02-06T10:14:48.255Z,-1.99
2023-02-06T10:17:25.594Z,-2.31
2023-02-06T10:20:21.606Z,-2.29
2023-02-06T10:22:48.594Z,-2.32
2023-02-06T10:25:30.183Z,-2.28
2023-02-06T10:27:59.637Z,-2.11
2023-02-06T10:30:57.593Z,-1.61
2023-02-06T10:34:06.132Z,-1.93
2023-02-06T10:36:46.079Z,-1.78
2023-02-06T10:39:34.643Z,-2.06
2023-02-06T10:42:26.112Z,-2.12
2023-02-06T10:45:18.524Z,-2.14
2023-02-06T10:48:10.788Z,-1.86
2023-02-06T10:50:43.428Z,-1.90
2023-02-06T10:53:19.327Z,-1.89
2023-02-06T10:56:03.464Z,-2.29
2023-02-06T10:58:53.470Z,-2.07
2023-02-06T11:01:26.292Z,-2.15
2023-02-06T11:04:19.282Z,-2.00
2023-02-06T11:06:47.169Z,-1.93
2023-02-06T11:09:15.783Z,-1.68
2023-02-06T11:11:48.600Z,-1.80
2023-02-06T11:14:25.337Z,-2.13
2023-02-06T11:16:53.656Z,-2.04
2023-02-06T11:19:25.733Z,-2.03
2023-02-06T11:22:13.669Z,-2.02
2023-02-06T11:24:59.649Z,-1.70
2023-02-06T11:27:28.335Z,-1.84
2023-02-06T11:29:55.597Z,-2.06
2023-02-06T11:32:40.978Z,-2.25
2023-02-06T11:35:26.714Z,-2.09
2023-02-06T11:37:55.962Z,-2.01
2023-02-06T11:40:26.877Z,-2.05
2023-02-06T11:43:21.117Z,-2.07
2023-02-06T11:45:52.537Z,-2.20
2023-02-06T11:49:00.761Z,-2.23
2023-02-06T11:51:47.813Z,-2.15
2023-02-06T11:54:35.565Z,-1.84
2023-02-06T11:57:21.260Z,-1.44
2023-02-06T12:00:00.020Z,-1.33
2023-02-06T12:02:38.229Z,-1.16
2023-02-06T12:05:11.940Z,-1.01
2023-02-06T12:07:52.558Z,-0.82
2023-02-06T12:10:23.677Z,-0.79
2023-02-06T12:13:07.136Z,-1.06
2023-02-06T12:15:48.146Z,-1.31
2023-02-06T12:18:28.055Z,-1.62
2023-02-06T12:20:59.894Z,-1.48
2023-02-06T12:23:29.136Z,-1.35
2023-02-06T12:25:59.944Z,-1.68
2023-02-06T12:28:37.441Z,-1.48
2023-02-06T12:31:14.948Z,-1.41
2023-02-06T12:33:49.061Z,-1.58
2023-02-06T12:36:33.262Z,-1.43
2023-02-06T12:39:02.917Z,-1.39
2023-02-06T12:41:54.469Z,-1.52
2023-02-06T12:44:40.744Z,-1.50
2023-02-06T12:47:13.109Z,-1.57
2023-02-06T12:49:55.638Z,-1.71
2023-02-06T12:52:31.783Z,-1.88
2023-02-06T12:55:26.333Z,-1.67
2023-02-06T12:57:54.291Z,-1.78
2023-02-06T13:00:46.014Z,-1.74
2023-02-06T13:03:24.964Z,-1.74
2023-02-06T13:06:02.883Z,-1.50
2023-02-06T13:08:45.282Z,-1.29
2023-02-06T13:11:17.717Z,-1.43
2023-02-06T13:13:44.794Z,-1.47
2023-02-06T13:16:11.860Z,-1.46
2023-02-06T13:18:41.846Z,-1.35
2023-02-06T13:21:28.935Z,-1.57
2023-02-06T13:24:01.801Z,-1.75
2023-02-06T13:26:51.844Z,-1.75
2023-02-06T13:29:30.586Z,-1.64
2023-02-06T13:32:12.786Z,-1.92
2023-02-06T13:34:44.384Z,-1.99
2023-02-06T13:37:26.372Z,-2.08
2023-02-06T13:40:18.175Z,-2.03
2023-02-06T13:43:01.039Z,-1.99
2023-02-06T13:45:42.206Z,-2.31
2023-02-06T13:48:09.225Z,-2.36
2023-02-06T13:50:48.738Z,-2.29
2023-02-06T13:53:41.667Z,-2.36
2023-02-06T13:56:38.688Z,-2.59
2023-02-06T13:59:41.679Z,-2.66
2023-02-06T14:02:33.999Z,-2.81
2023-02-06T14:05:03.274Z,-2.78
2023-02-06T14:07:54.973Z,-2.88
2023-02-06T14:10:54.704Z,-2.96
2023-02-06T14:13:24.560Z,-2.92
2023-02-06T14:16:13.001Z,-3.03
2023-02-06T14:19:09.103Z,-3.07
2023-02-06T14:22:11.127Z,-3.12
2023-02-06T14:25:15.302Z,-3.02
2023-02-06T14:28:02.057Z,-3.06
2023-02-06T14:30:52.320Z,-3.16
2023-02-06T14:33:56.805Z,-3.35
2023-02-06T14:37:07.011Z,-3.35
2023-02-06T14:39:42.440Z,-3.36
2023-02-06T14:42:27.250Z,-3.17
2023-02-06T14:45:03.384Z,-3.08
2023-02-06T14:47:42.477Z,-3.14
2023-02-06T14:50:24.359Z,-3.28
2023-02-06T14:53:13.723Z,-3.15
2023-02-06T14:55:43.239Z,-3.13
2023-02-06T14:58:25.152Z,-3.31
2023-02-06T15:00:53.265Z,-3.40
2023-02-06T15:03:27.687Z,-3.43
2023-02-06T15:06:07.818Z,-3.48
2023-02-06T15:08:34.983Z,-3.54
2023-02-06T15:11:07.566Z,-3.54
2023-02-06T15:13:35.734Z,-3.51
2023-02-06T15:16:08.627Z,-3.58
2023-02-06T15:18:36.746Z,-3.60
2023-02-06T15:21:06.748Z,-3.62
2023-02-06T15:23:36.495Z,-3.69
2023-02-06T15:26:16.207Z,-3.62
2023-02-06T15:28:44.934Z,-3.66
2023-02-06T15:31:21.161Z,-3.78
2023-02-06T15:33:54.478Z,-3.86
2023-02-06T15:36:37.076Z,-3.93
2023-02-06T15:39:08.070Z,-3.89
2023-02-06T15:41:35.916Z,-3.98
2023-02-06T15:44:28.392Z,-4.09
2023-02-06T15:46:57.443Z,-4.41
2023-02-06T15:49:35.341Z,-4.21
2023-02-06T15:52:02.527Z,-4.22
2023-02-06T15:54:29.830Z,-4.31
2023-02-06T15:57:17.487Z,-4.33
2023-02-06T15:59:44.846Z,-4.38
2023-02-06T16:02:33.913Z,-4.41
2023-02-06T16:05:02.577Z,-4.33
2023-02-06T16:07:32.923Z,-4.44
2023-02-06T16:10:08.806Z,-4.56
2023-02-06T16:12:39.309Z,-4.61
2023-02-06T16:15:53.657Z,-4.64
2023-02-06T16:18:31.156Z,-4.80
2023-02-06T16:21:23.498Z,-5.04
2023-02-06T16:24:03.489Z,-4.96
2023-02-06T16:26:48.592Z,-5.04
2023-02-06T16:29:27.072Z,-5.08
2023-02-06T16:32:03.465Z,-5.06
2023-02-06T16:34:40.837Z,-5.10
2023-02-06T16:37:17.299Z,-5.15
2023-02-06T16:39:45.428Z,-5.16
2023-02-06T16:42:21.831Z,-5.21
2023-02-06T16:45:00.336Z,-5.19
2023-02-06T16:47:27.903Z,-5.24
2023-02-06T16:49:54.897Z,-5.32
2023-02-06T16:52:30.534Z,-5.37
2023-02-06T16:54:59.237Z,-5.35
2023-02-06T16:57:26.114Z,-5.43
2023-02-06T16:59:53.307Z,-5.42
2023-02-06T17:02:20.256Z,-5.44
2023-02-06T17:04:47.866Z,-5.50
2023-02-06T17:07:20.724Z,-5.58
2023-02-06T17:09:50.047Z,-5.66
2023-02-06T17:12:19.987Z,-5.69
2023-02-06T17:14:48.936Z,-5.68
2023-02-06T17:17:20.107Z,-5.66
2023-02-06T17:19:47.785Z,-5.68
2023-02-06T17:22:15.242Z,-5.72
2023-02-06T17:24:43.068Z,-5.77
2023-02-06T17:27:14.707Z,-5.77
2023-02-06T17:29:41.912Z,-5.78
2023-02-06T17:32:09.525Z,-5.81
2023-02-06T17:34:37.651Z,-5.84
2023-02-06T17:37:05.206Z,-5.88
2023-02-06T17:39:32.281Z,-5.99
2023-02-06T17:41:59.201Z,-6.08
2023-02-06T17:44:26.409Z,-6.19
2023-02-06T17:46:53.346Z,-6.27
2023-02-06T17:49:20.366Z,-6.35
2023-02-06T17:51:47.227Z,-6.46
2023-02-06T17:54:14.203Z,-6.51
2023-02-06T17:56:41.149Z,-6.61
2023-02-06T17:59:08.058Z,-6.78
2023-02-06T18:01:35.423Z,-6.86
2023-02-06T18:04:04.002Z,-6.92
2023-02-06T18:06:35.015Z,-6.90
2023-02-06T18:09:02.316Z,-6.98
2023-02-06T18:11:29.300Z,-7.11
2023-02-06T18:13:56.344Z,-7.09
2023-02-06T18:16:26.021Z,-7.02
2023-02-06T18:18:54.258Z,-7.03
2023-02-06T18:21:24.482Z,-7.16
2023-02-06T18:23:53.238Z,-7.09
2023-02-06T18:26:20.316Z,-7.12
2023-02-06T18:28:47.443Z,-7.13
2023-02-06T18:31:30.081Z,-7.36
2023-02-06T18:33:57.961Z,-7.59
2023-02-06T18:36:28.140Z,-7.60
2023-02-06T18:38:55.325Z,-7.69
2023-02-06T18:41:40.801Z,-7.79
2023-02-06T18:44:09.928Z,-7.81
2023-02-06T18:46:38.183Z,-8.07
2023-02-06T18:49:05.729Z,-7.93
2023-02-06T18:51:33.184Z,-7.99
2023-02-06T18:54:00.918Z,-7.99
2023-02-06T18:56:28.266Z,-7.98
2023-02-06T18:58:55.204Z,-7.98
2023-02-06T19:01:25.656Z,-7.99
2023-02-06T19:03:53.809Z,-7.99
2023-02-06T19:06:23.670Z,-7.98
2023-02-06T19:08:51.052Z,-7.97
2023-02-06T19:11:18.027Z,-7.95
2023-02-06T19:13:45.074Z,-7.96
2023-02-06T19:16:14.907Z,-8.05
2023-02-06T19:18:44.312Z,-8.12
2023-02-06T19:21:16.023Z,-8.12
2023-02-06T19:23:44.629Z,-8.18
2023-02-06T19:26:14.995Z,-8.23
2023-02-06T19:28:42.856Z,-8.27
2023-02-06T19:31:11.214Z,-8.21
2023-02-06T19:33:40.343Z,-8.17
2023-02-06T19:36:12.325Z,-8.24
2023-02-06T19:38:40.392Z,-8.09
2023-02-06T19:41:12.717Z,-8.08
2023-02-06T19:43:40.896Z,-8.09
2023-02-06T19:46:12.079Z,-8.12
2023-02-06T19:48:43.369Z,-8.12
2023-02-06T19:51:13.614Z,-8.20
2023-02-06T19:53:45.836Z,-8.26
2023-02-06T19:56:14.786Z,-8.33
2023-02-06T19:58:42.022Z,-8.34
2023-02-06T20:01:11.143Z,-8.34
2023-02-06T20:03:38.598Z,-8.35
2023-02-06T20:06:10.906Z,-8.35
2023-02-06T20:08:39.289Z,-8.36
2023-02-06T20:11:08.002Z,-8.39
2023-02-06T20:13:35.995Z,-8.39
2023-02-06T20:16:04.773Z,-8.43
2023-02-06T20:18:33.762Z,-8.53
2023-02-06T20:21:01.180Z,-8.62
2023-02-06T20:23:28.989Z,-8.63
2023-02-06T20:25:56.020Z,-8.70
2023-02-06T20:28:23.906Z,-8.69
2023-02-06T20:30:50.925Z,-8.71
2023-02-06T20:33:18.022Z,-8.79
2023-02-06T20:35:45.870Z,-8.80
2023-02-06T20:38:13.063Z,-9.02
2023-02-06T20:40:43.889Z,-9.00
2023-02-06T20:43:10.878Z,-9.06
2023-02-06T20:45:37.740Z,-9.10
2023-02-06T20:48:04.833Z,-9.06
2023-02-06T20:50:31.687Z,-9.07
2023-02-06T20:52:58.612Z,-9.12
2023-02-06T20:55:25.787Z,-9.17
2023-02-06T20:57:53.063Z,-9.21
2023-02-06T21:00:20.103Z,-9.24
2023-02-06T21:02:47.058Z,-9.29
2023-02-06T21:05:13.948Z,-9.34
2023-02-06T21:07:41.452Z,-9.33
2023-02-06T21:10:08.609Z,-9.39
2023-02-06T21:12:35.513Z,-9.47
2023-02-06T21:15:02.726Z,-9.46
2023-02-06T21:17:29.700Z,-9.53
2023-02-06T21:19:56.664Z,-9.59
2023-02-06T21:22:23.556Z,-9.59
2023-02-06T21:24:50.680Z,-9.65
2023-02-06T21:27:17.584Z,-9.61
2023-02-06T21:29:44.493Z,-9.57
2023-02-06T21:32:14.323Z,-9.62
2023-02-06T21:34:42.634Z,-9.59
2023-02-06T21:37:09.703Z,-9.60
2023-02-06T21:39:38.955Z,-9.57
2023-02-06T21:42:05.996Z,-9.56
2023-02-06T21:44:33.196Z,-9.53
2023-02-06T21:47:00.127Z,-9.51
2023-02-06T21:49:27.152Z,-9.52
2023-02-06T21:51:54.046Z,-9.51
2023-02-06T21:54:21.137Z,-9.53
2023-02-06T21:56:48.232Z,-9.53
2023-02-06T21:59:15.138Z,-9.57
2023-02-06T22:01:42.166Z,-9.54
2023-02-06T22:04:11.406Z,-9.59
2023-02-06T22:06:38.972Z,-9.59
2023-02-06T22:09:09.556Z,-9.57
2023-02-06T22:11:38.798Z,-9.56
2023-02-06T22:14:10.166Z,-9.53
2023-02-06T22:16:38.323Z,-9.51
2023-02-06T22:19:06.222Z,-9.49
2023-02-06T22:21:34.976Z,-9.46
2023-02-06T22:24:07.507Z,-9.50
2023-02-06T22:26:38.884Z,-9.51
2023-02-06T22:29:08.275Z,-9.62
2023-02-06T22:31:35.618Z,-9.56
2023-02-06T22:34:04.115Z,-9.53
2023-02-06T22:36:33.093Z,-9.56
2023-02-06T22:39:04.094Z,-9.57
2023-02-06T22:41:31.284Z,-9.61
2023-02-06T22:43:58.705Z,-9.66
2023-02-06T22:46:31.784Z,-10.06
2023-02-06T22:48:59.241Z,-9.78
2023-02-06T22:51:26.614Z,-9.87
2023-02-06T22:53:53.650Z,-9.84
2023-02-06T22:56:32.114Z,-9.84
2023-02-06T22:59:06.284Z,-9.84
2023-02-06T23:01:42.165Z,-10.09
2023-02-06T23:04:14.242Z,-9.84
2023-02-06T23:06:42.203Z,-9.85
2023-02-06T23:09:13.944Z,-9.88
2023-02-06T23:11:41.345Z,-9.95
2023-02-06T23:14:08.364Z,-9.93
2023-02-06T23:16:35.906Z,-10.06
2023-02-06T23:19:04.880Z,-9.95
2023-02-06T23:21:34.659Z,-9.99
2023-02-06T23:24:01.703Z,-9.95
2023-02-06T23:26:29.660Z,-9.94
2023-02-06T23:29:02.443Z,-9.90
2023-02-06T23:31:29.462Z,-9.90
2023-02-06T23:33:56.961Z,-9.86
2023-02-06T23:36:25.979Z,-9.86
2023-02-06T23:38:53.129Z,-9.89
2023-02-06T23:41:25.395Z,-9.93
2023-02-06T23:43:58.752Z,-9.93
2023-02-06T23:46:27.517Z,-9.88
2023-02-06T23:48:55.104Z,-9.84
2023-02-06T23:51:23.088Z,-9.83
2023-02-06T23:53:51.401Z,-9.98
2023-02-06T23:56:24.397Z,-10.10
2023-02-06T23:58:52.103Z,-10.24
